CPA706 VTBS-VHHH
Flight info
| Callsign | CPA706 |
|---|---|
| Flight time | 2h 15m |
| Altitude | 37000 |
| Route | SELKA1G SELKA A1 SANOT Y15 GUROK A202 VILAO/K0850F370 A202 ASSAD/K0850S1130 A202 SAMAS A202 SIKOU/N0459F370 V571 CANTO |
| Aircraft | A21N/M-SDE2E3FGHIRWXY/LB1 |
Departure
| Time | 2026-05-07 15:19 |
|---|---|
| Airport | Suvarnabhumi Airport (VTBS) |
Arrival
| Time | 2026-05-07 17:34 |
|---|---|
| Airport | Hong Kong International Airport (VHHH) |
| Time | Latitude | Longitude | Altitude | Speed | Heading |
|---|---|---|---|---|---|
| 2026-05-07 14:42 | 13.68050 | 100.75167 | 19 ft | 0 kts | 13° |
| 2026-05-07 15:06 | 13.68032 | 100.75163 | 18 ft | 4 kts | 16° |
| 2026-05-07 15:07 | 13.68006 | 100.75154 | 18 ft | 4 kts | 23° |
| 2026-05-07 15:07 | 13.67982 | 100.75141 | 18 ft | 4 kts | 35° |
| 2026-05-07 15:07 | 13.67964 | 100.75123 | 18 ft | 4 kts | 69° |
| 2026-05-07 15:07 | 13.67962 | 100.75109 | 18 ft | 0 kts | 104° |
| 2026-05-07 15:12 | 13.67958 | 100.75126 | 18 ft | 5 kts | 104° |
| 2026-05-07 15:12 | 13.67945 | 100.75175 | 20 ft | 9 kts | 104° |
| 2026-05-07 15:13 | 13.67931 | 100.75229 | 18 ft | 10 kts | 104° |
| 2026-05-07 15:13 | 13.67911 | 100.75309 | 18 ft | 13 kts | 104° |
| 2026-05-07 15:13 | 13.67887 | 100.75402 | 18 ft | 14 kts | 104° |
| 2026-05-07 15:13 | 13.67932 | 100.75487 | 18 ft | 16 kts | 12° |
| 2026-05-07 15:14 | 13.68049 | 100.75512 | 18 ft | 18 kts | 15° |
| 2026-05-07 15:14 | 13.68173 | 100.75551 | 18 ft | 19 kts | 17° |
| 2026-05-07 15:14 | 13.68308 | 100.75589 | 18 ft | 21 kts | 14° |
| 2026-05-07 15:14 | 13.68455 | 100.75624 | 19 ft | 22 kts | 13° |
| 2026-05-07 15:15 | 13.68611 | 100.75665 | 18 ft | 24 kts | 14° |
| 2026-05-07 15:15 | 13.68777 | 100.75708 | 19 ft | 25 kts | 15° |
| 2026-05-07 15:15 | 13.68930 | 100.75750 | 19 ft | 22 kts | 14° |
| 2026-05-07 15:15 | 13.69050 | 100.75781 | 21 ft | 10 kts | 14° |
| 2026-05-07 15:16 | 13.69108 | 100.75821 | 20 ft | 11 kts | 75° |
| 2026-05-07 15:16 | 13.69098 | 100.75904 | 19 ft | 13 kts | 108° |
| 2026-05-07 15:16 | 13.69087 | 100.75939 | 19 ft | 0 kts | 106° |
| 2026-05-07 15:17 | 13.69086 | 100.75943 | 19 ft | 2 kts | 106° |
| 2026-05-07 15:17 | 13.69074 | 100.75997 | 18 ft | 11 kts | 100° |
| 2026-05-07 15:17 | 13.69035 | 100.76067 | 19 ft | 13 kts | 176° |
| 2026-05-07 15:18 | 13.68991 | 100.76058 | 21 ft | 7 kts | 194° |
| 2026-05-07 15:18 | 13.68747 | 100.75994 | 21 ft | 74 kts | 193° |
| 2026-05-07 15:18 | 13.68025 | 100.75802 | 17 ft | 138 kts | 194° |
| 2026-05-07 15:18 | 13.66950 | 100.75511 | 217 ft | 165 kts | 195° |
| 2026-05-07 15:19 | 13.65837 | 100.75226 | 847 ft | 167 kts | 192° |
| 2026-05-07 15:19 | 13.64657 | 100.75153 | 1443 ft | 176 kts | 179° |
| 2026-05-07 15:19 | 13.63384 | 100.75186 | 1999 ft | 191 kts | 180° |
| 2026-05-07 15:19 | 13.62004 | 100.75207 | 2637 ft | 206 kts | 180° |
| 2026-05-07 15:20 | 13.60518 | 100.75229 | 3274 ft | 222 kts | 180° |
| 2026-05-07 15:20 | 13.58912 | 100.75460 | 3680 ft | 247 kts | 159° |
| 2026-05-07 15:20 | 13.57488 | 100.76530 | 4145 ft | 266 kts | 128° |
| 2026-05-07 15:20 | 13.56783 | 100.78300 | 4869 ft | 275 kts | 97° |
| 2026-05-07 15:21 | 13.56912 | 100.80266 | 5502 ft | 278 kts | 81° |
| 2026-05-07 15:21 | 13.57176 | 100.82236 | 5777 ft | 278 kts | 87° |
| 2026-05-07 15:21 | 13.57232 | 100.84216 | 5872 ft | 277 kts | 90° |
| 2026-05-07 15:21 | 13.57242 | 100.86164 | 6179 ft | 277 kts | 90° |
| 2026-05-07 15:22 | 13.57241 | 100.88164 | 6965 ft | 281 kts | 90° |
| 2026-05-07 15:22 | 13.57236 | 100.90181 | 7798 ft | 284 kts | 90° |
| 2026-05-07 15:22 | 13.57227 | 100.92216 | 8616 ft | 286 kts | 90° |
| 2026-05-07 15:22 | 13.57488 | 100.94244 | 9389 ft | 290 kts | 71° |
| 2026-05-07 15:23 | 13.58453 | 100.96072 | 10081 ft | 297 kts | 54° |
| 2026-05-07 15:23 | 13.59824 | 100.97744 | 10448 ft | 316 kts | 49° |
| 2026-05-07 15:23 | 13.61331 | 100.99484 | 10730 ft | 336 kts | 50° |
| 2026-05-07 15:23 | 13.62909 | 101.01340 | 10991 ft | 355 kts | 50° |
| 2026-05-07 15:24 | 13.64564 | 101.03327 | 11247 ft | 373 kts | 50° |
| 2026-05-07 15:24 | 13.66276 | 101.05403 | 11524 ft | 388 kts | 50° |
| 2026-05-07 15:24 | 13.68035 | 101.07542 | 12046 ft | 394 kts | 51° |
| 2026-05-07 15:24 | 13.69804 | 101.09707 | 12653 ft | 397 kts | 51° |
| 2026-05-07 15:25 | 13.71590 | 101.11889 | 13233 ft | 400 kts | 51° |
| 2026-05-07 15:25 | 13.73389 | 101.14090 | 13762 ft | 403 kts | 51° |
| 2026-05-07 15:25 | 13.75199 | 101.16304 | 14272 ft | 407 kts | 51° |
| 2026-05-07 15:25 | 13.77027 | 101.18548 | 14749 ft | 410 kts | 51° |
| 2026-05-07 15:26 | 13.78863 | 101.20806 | 15216 ft | 414 kts | 51° |
| 2026-05-07 15:26 | 13.80719 | 101.23087 | 15681 ft | 417 kts | 51° |
| 2026-05-07 15:26 | 13.82589 | 101.25381 | 16130 ft | 420 kts | 51° |
| 2026-05-07 15:26 | 13.84472 | 101.27696 | 16566 ft | 423 kts | 51° |
| 2026-05-07 15:27 | 13.86370 | 101.30029 | 16999 ft | 427 kts | 51° |
| 2026-05-07 15:27 | 13.88279 | 101.32380 | 17417 ft | 430 kts | 51° |
| 2026-05-07 15:27 | 13.90201 | 101.34748 | 17822 ft | 433 kts | 51° |
| 2026-05-07 15:27 | 13.92146 | 101.37136 | 18222 ft | 436 kts | 51° |
| 2026-05-07 15:28 | 13.94101 | 101.39534 | 18610 ft | 439 kts | 51° |
| 2026-05-07 15:28 | 13.96042 | 101.41919 | 19004 ft | 442 kts | 51° |
| 2026-05-07 15:28 | 13.98013 | 101.44359 | 19406 ft | 444 kts | 51° |
| 2026-05-07 15:28 | 13.99999 | 101.46805 | 19810 ft | 447 kts | 51° |
| 2026-05-07 15:29 | 14.02001 | 101.49267 | 20217 ft | 449 kts | 51° |
| 2026-05-07 15:29 | 14.04007 | 101.51744 | 20622 ft | 452 kts | 51° |
| 2026-05-07 15:29 | 14.06022 | 101.54239 | 21029 ft | 455 kts | 51° |
| 2026-05-07 15:29 | 14.08055 | 101.56749 | 21461 ft | 457 kts | 51° |
| 2026-05-07 15:30 | 14.10099 | 101.59264 | 21887 ft | 460 kts | 51° |
| 2026-05-07 15:30 | 14.12151 | 101.61804 | 22305 ft | 462 kts | 51° |
| 2026-05-07 15:30 | 14.14210 | 101.64353 | 22693 ft | 464 kts | 51° |
| 2026-05-07 15:30 | 14.16289 | 101.66908 | 23057 ft | 467 kts | 51° |
| 2026-05-07 15:31 | 14.18385 | 101.69477 | 23406 ft | 469 kts | 51° |
| 2026-05-07 15:31 | 14.20486 | 101.72061 | 23740 ft | 471 kts | 51° |
| 2026-05-07 15:31 | 14.22593 | 101.74658 | 24040 ft | 473 kts | 51° |
| 2026-05-07 15:31 | 14.24703 | 101.77267 | 24309 ft | 475 kts | 51° |
| 2026-05-07 15:32 | 14.26819 | 101.79888 | 24579 ft | 477 kts | 51° |
| 2026-05-07 15:32 | 14.28949 | 101.82520 | 24839 ft | 479 kts | 51° |
| 2026-05-07 15:32 | 14.31082 | 101.85155 | 25093 ft | 480 kts | 51° |
| 2026-05-07 15:32 | 14.33116 | 101.87888 | 25377 ft | 480 kts | 57° |
| 2026-05-07 15:33 | 14.34663 | 101.90930 | 25677 ft | 479 kts | 68° |
| 2026-05-07 15:33 | 14.35796 | 101.94107 | 26026 ft | 478 kts | 71° |
| 2026-05-07 15:33 | 14.36891 | 101.97387 | 26375 ft | 476 kts | 71° |
| 2026-05-07 15:33 | 14.37964 | 102.00572 | 26679 ft | 476 kts | 71° |
| 2026-05-07 15:34 | 14.39068 | 102.03834 | 27001 ft | 476 kts | 71° |
| 2026-05-07 15:34 | 14.40151 | 102.07013 | 27322 ft | 475 kts | 71° |
| 2026-05-07 15:34 | 14.41242 | 102.10224 | 27607 ft | 475 kts | 71° |
| 2026-05-07 15:34 | 14.42332 | 102.13437 | 27886 ft | 475 kts | 71° |
| 2026-05-07 15:35 | 14.43426 | 102.16647 | 28202 ft | 474 kts | 71° |
| 2026-05-07 15:35 | 14.44515 | 102.19847 | 28512 ft | 473 kts | 70° |
| 2026-05-07 15:35 | 14.45608 | 102.23053 | 28828 ft | 472 kts | 70° |
| 2026-05-07 15:35 | 14.46695 | 102.26244 | 29141 ft | 472 kts | 70° |
| 2026-05-07 15:36 | 14.47779 | 102.29443 | 29455 ft | 471 kts | 70° |
| 2026-05-07 15:36 | 14.48856 | 102.32627 | 29762 ft | 471 kts | 70° |
| 2026-05-07 15:36 | 14.49942 | 102.35820 | 30059 ft | 471 kts | 70° |
| 2026-05-07 15:36 | 14.51017 | 102.39001 | 30326 ft | 471 kts | 70° |
| 2026-05-07 15:37 | 14.52093 | 102.42197 | 30641 ft | 470 kts | 70° |
| 2026-05-07 15:37 | 14.53173 | 102.45383 | 30921 ft | 470 kts | 70° |
| 2026-05-07 15:37 | 14.53889 | 102.47489 | 31120 ft | 470 kts | 70° |
| 2026-05-07 15:37 | 14.55331 | 102.51745 | 31521 ft | 470 kts | 70° |
| 2026-05-07 15:38 | 14.56041 | 102.53851 | 31725 ft | 469 kts | 70° |
| 2026-05-07 15:38 | 14.57119 | 102.57032 | 32020 ft | 469 kts | 70° |
| 2026-05-07 15:38 | 14.58194 | 102.60207 | 32286 ft | 469 kts | 70° |
| 2026-05-07 15:38 | 14.59258 | 102.63387 | 32557 ft | 468 kts | 70° |
| 2026-05-07 15:39 | 14.60331 | 102.66565 | 32826 ft | 469 kts | 70° |
| 2026-05-07 15:39 | 14.61406 | 102.69737 | 33112 ft | 468 kts | 70° |
| 2026-05-07 15:39 | 14.62477 | 102.72907 | 33365 ft | 468 kts | 70° |
| 2026-05-07 15:39 | 14.63539 | 102.76084 | 33620 ft | 468 kts | 70° |
| 2026-05-07 15:40 | 14.64602 | 102.79259 | 33882 ft | 467 kts | 70° |
| 2026-05-07 15:40 | 14.65659 | 102.82426 | 34129 ft | 467 kts | 70° |
| 2026-05-07 15:40 | 14.66722 | 102.85602 | 34373 ft | 467 kts | 70° |
| 2026-05-07 15:40 | 14.67786 | 102.88767 | 34607 ft | 467 kts | 70° |
| 2026-05-07 15:41 | 14.68845 | 102.91932 | 34831 ft | 466 kts | 70° |
| 2026-05-07 15:41 | 14.69902 | 102.95102 | 35034 ft | 466 kts | 70° |
| 2026-05-07 15:41 | 14.70959 | 102.98266 | 35230 ft | 466 kts | 70° |
| 2026-05-07 15:41 | 14.72020 | 103.01436 | 35430 ft | 466 kts | 69° |
| 2026-05-07 15:42 | 14.73079 | 103.04595 | 35626 ft | 466 kts | 69° |
| 2026-05-07 15:42 | 14.74136 | 103.07757 | 35804 ft | 466 kts | 69° |
| 2026-05-07 15:42 | 14.75194 | 103.10923 | 35975 ft | 466 kts | 69° |
| 2026-05-07 15:42 | 14.76250 | 103.14086 | 36153 ft | 466 kts | 69° |
| 2026-05-07 15:43 | 14.77305 | 103.17249 | 36338 ft | 466 kts | 69° |
| 2026-05-07 15:43 | 14.78350 | 103.20367 | 36476 ft | 466 kts | 69° |
| 2026-05-07 15:43 | 14.79412 | 103.23531 | 36649 ft | 466 kts | 69° |
| 2026-05-07 15:43 | 14.80465 | 103.26686 | 36899 ft | 463 kts | 69° |
| 2026-05-07 15:44 | 14.82542 | 103.32932 | 36972 ft | 457 kts | 69° |
| 2026-05-07 15:44 | 14.84618 | 103.39135 | 36955 ft | 457 kts | 69° |
| 2026-05-07 15:45 | 14.87462 | 103.44937 | 36949 ft | 452 kts | 50° |
| 2026-05-07 15:45 | 14.91523 | 103.49887 | 36951 ft | 451 kts | 47° |
| 2026-05-07 15:46 | 14.97691 | 103.57236 | 36950 ft | 451 kts | 47° |
| 2026-05-07 15:47 | 15.01789 | 103.62156 | 36949 ft | 451 kts | 47° |
| 2026-05-07 15:47 | 15.05871 | 103.67087 | 36950 ft | 451 kts | 47° |
| 2026-05-07 15:48 | 15.09949 | 103.72031 | 36950 ft | 452 kts | 47° |
| 2026-05-07 15:48 | 15.14091 | 103.76909 | 36947 ft | 450 kts | 41° |
| 2026-05-07 15:49 | 15.19245 | 103.80454 | 36959 ft | 446 kts | 22° |
| 2026-05-07 15:49 | 15.24951 | 103.82921 | 36960 ft | 444 kts | 20° |
| 2026-05-07 15:50 | 15.30642 | 103.85379 | 36951 ft | 444 kts | 21° |
| 2026-05-07 15:50 | 15.36346 | 103.87878 | 36950 ft | 444 kts | 21° |
| 2026-05-07 15:51 | 15.42035 | 103.90376 | 36950 ft | 444 kts | 21° |
| 2026-05-07 15:51 | 15.47716 | 103.92877 | 36950 ft | 444 kts | 21° |
| 2026-05-07 15:52 | 15.53362 | 103.95359 | 36952 ft | 444 kts | 21° |
| 2026-05-07 15:52 | 15.59048 | 103.97861 | 36951 ft | 444 kts | 21° |
| 2026-05-07 15:53 | 15.64735 | 104.00362 | 36950 ft | 444 kts | 21° |
| 2026-05-07 15:53 | 15.70422 | 104.02866 | 36950 ft | 445 kts | 21° |
| 2026-05-07 15:54 | 15.76109 | 104.05375 | 36950 ft | 445 kts | 21° |
| 2026-05-07 15:54 | 15.81813 | 104.07895 | 36950 ft | 445 kts | 21° |
| 2026-05-07 15:55 | 15.87505 | 104.10409 | 36950 ft | 445 kts | 21° |
| 2026-05-07 15:55 | 15.93198 | 104.12929 | 36951 ft | 445 kts | 21° |
| 2026-05-07 15:56 | 15.98901 | 104.15444 | 36951 ft | 445 kts | 20° |
| 2026-05-07 15:56 | 16.04547 | 104.18082 | 36946 ft | 447 kts | 28° |
| 2026-05-07 15:56 | 16.07080 | 104.19982 | 36947 ft | 451 kts | 40° |
| 2026-05-07 15:57 | 16.09278 | 104.22327 | 36958 ft | 453 kts | 45° |
| 2026-05-07 15:57 | 16.13486 | 104.27213 | 36959 ft | 453 kts | 46° |
| 2026-05-07 15:58 | 16.17710 | 104.32081 | 36950 ft | 453 kts | 45° |
| 2026-05-07 15:58 | 16.21921 | 104.36897 | 36951 ft | 453 kts | 45° |
| 2026-05-07 15:59 | 16.26159 | 104.41756 | 36950 ft | 453 kts | 45° |
| 2026-05-07 15:59 | 16.30362 | 104.46639 | 36960 ft | 453 kts | 46° |
| 2026-05-07 16:00 | 16.34563 | 104.51540 | 36961 ft | 453 kts | 46° |
| 2026-05-07 16:00 | 16.38772 | 104.56421 | 36963 ft | 453 kts | 46° |
| 2026-05-07 16:01 | 16.42984 | 104.61312 | 36973 ft | 453 kts | 45° |
| 2026-05-07 16:01 | 16.47187 | 104.66188 | 36972 ft | 453 kts | 45° |
| 2026-05-07 16:02 | 16.51403 | 104.71080 | 36979 ft | 453 kts | 45° |
| 2026-05-07 16:02 | 16.55591 | 104.75972 | 36976 ft | 453 kts | 48° |
| 2026-05-07 16:03 | 16.59161 | 104.81417 | 36982 ft | 455 kts | 55° |
| 2026-05-07 16:03 | 16.62568 | 104.86980 | 36976 ft | 455 kts | 55° |
| 2026-05-07 16:04 | 16.65999 | 104.92537 | 36979 ft | 455 kts | 55° |
| 2026-05-07 16:04 | 16.69420 | 104.98094 | 36980 ft | 455 kts | 55° |
| 2026-05-07 16:05 | 16.72838 | 105.03650 | 36980 ft | 455 kts | 55° |
| 2026-05-07 16:05 | 16.76250 | 105.09209 | 36982 ft | 455 kts | 55° |
| 2026-05-07 16:06 | 16.79669 | 105.14773 | 36978 ft | 455 kts | 55° |
| 2026-05-07 16:06 | 16.83087 | 105.20337 | 36981 ft | 456 kts | 55° |
| 2026-05-07 16:07 | 16.86499 | 105.25911 | 36981 ft | 456 kts | 55° |
| 2026-05-07 16:07 | 16.89895 | 105.31458 | 36979 ft | 456 kts | 55° |
| 2026-05-07 16:08 | 16.93305 | 105.37046 | 36979 ft | 457 kts | 55° |
| 2026-05-07 16:08 | 16.96723 | 105.42633 | 36981 ft | 457 kts | 55° |
| 2026-05-07 16:09 | 17.00141 | 105.48232 | 36978 ft | 456 kts | 55° |
| 2026-05-07 16:09 | 17.03554 | 105.53818 | 36977 ft | 456 kts | 55° |
| 2026-05-07 16:10 | 17.06964 | 105.59408 | 36978 ft | 456 kts | 55° |
| 2026-05-07 16:10 | 17.10353 | 105.65015 | 36980 ft | 456 kts | 55° |
| 2026-05-07 16:11 | 17.13749 | 105.70623 | 36980 ft | 457 kts | 55° |
| 2026-05-07 16:11 | 17.17157 | 105.76230 | 36980 ft | 457 kts | 55° |
| 2026-05-07 16:12 | 17.20569 | 105.81839 | 36980 ft | 457 kts | 55° |
| 2026-05-07 16:12 | 17.23991 | 105.87434 | 36979 ft | 457 kts | 55° |
| 2026-05-07 16:13 | 17.27377 | 105.93005 | 36980 ft | 457 kts | 55° |
| 2026-05-07 16:13 | 17.30783 | 105.98627 | 36981 ft | 458 kts | 55° |
| 2026-05-07 16:14 | 17.34188 | 106.04252 | 36979 ft | 457 kts | 55° |
| 2026-05-07 16:14 | 17.37595 | 106.09881 | 36979 ft | 458 kts | 54° |
| 2026-05-07 16:15 | 17.41055 | 106.15475 | 36983 ft | 458 kts | 54° |
| 2026-05-07 16:15 | 17.44503 | 106.21080 | 36983 ft | 457 kts | 54° |
| 2026-05-07 16:16 | 17.47958 | 106.26680 | 36981 ft | 458 kts | 54° |
| 2026-05-07 16:16 | 17.51405 | 106.32279 | 36982 ft | 458 kts | 54° |
| 2026-05-07 16:17 | 17.54846 | 106.37891 | 36988 ft | 458 kts | 54° |
| 2026-05-07 16:17 | 17.58297 | 106.43499 | 36989 ft | 458 kts | 54° |
| 2026-05-07 16:18 | 17.61744 | 106.49113 | 36989 ft | 457 kts | 54° |
| 2026-05-07 16:18 | 17.65187 | 106.54715 | 36990 ft | 457 kts | 54° |
| 2026-05-07 16:19 | 17.68617 | 106.60335 | 36991 ft | 457 kts | 54° |
| 2026-05-07 16:19 | 17.72043 | 106.65953 | 36991 ft | 457 kts | 54° |
| 2026-05-07 16:20 | 17.75448 | 106.71538 | 36990 ft | 457 kts | 55° |
| 2026-05-07 16:20 | 17.78862 | 106.77161 | 36989 ft | 457 kts | 55° |
| 2026-05-07 16:21 | 17.82270 | 106.82791 | 36990 ft | 456 kts | 55° |
| 2026-05-07 16:21 | 17.85690 | 106.88403 | 36989 ft | 457 kts | 54° |
| 2026-05-07 16:22 | 17.89107 | 106.94015 | 36998 ft | 456 kts | 54° |
| 2026-05-07 16:22 | 17.92531 | 106.99617 | 37000 ft | 456 kts | 54° |
| 2026-05-07 16:23 | 17.95953 | 107.05222 | 37000 ft | 456 kts | 54° |
| 2026-05-07 16:23 | 17.99375 | 107.10822 | 36999 ft | 455 kts | 54° |
| 2026-05-07 16:24 | 18.02793 | 107.16428 | 36999 ft | 456 kts | 54° |
| 2026-05-07 16:24 | 18.06200 | 107.22053 | 37001 ft | 456 kts | 54° |
| 2026-05-07 16:25 | 18.09609 | 107.27672 | 37000 ft | 456 kts | 54° |
| 2026-05-07 16:25 | 18.13015 | 107.33295 | 37000 ft | 455 kts | 54° |
| 2026-05-07 16:26 | 18.16422 | 107.38905 | 37001 ft | 455 kts | 54° |
| 2026-05-07 16:26 | 18.19805 | 107.44484 | 37001 ft | 456 kts | 54° |
| 2026-05-07 16:27 | 18.23206 | 107.50108 | 37008 ft | 455 kts | 54° |
| 2026-05-07 16:27 | 18.26607 | 107.55722 | 37010 ft | 455 kts | 54° |
| 2026-05-07 16:28 | 18.30008 | 107.61349 | 37010 ft | 455 kts | 54° |
| 2026-05-07 16:28 | 18.33412 | 107.66966 | 37022 ft | 455 kts | 54° |
| 2026-05-07 16:29 | 18.37279 | 107.72198 | 37023 ft | 452 kts | 47° |
| 2026-05-07 16:29 | 18.41303 | 107.77279 | 37020 ft | 452 kts | 47° |
| 2026-05-07 16:30 | 18.44640 | 107.81510 | 37020 ft | 452 kts | 47° |
| 2026-05-07 16:30 | 18.48655 | 107.86618 | 37020 ft | 452 kts | 47° |
| 2026-05-07 16:31 | 18.53312 | 107.92555 | 37020 ft | 452 kts | 47° |
| 2026-05-07 16:31 | 18.56678 | 107.96837 | 37020 ft | 452 kts | 47° |
| 2026-05-07 16:32 | 18.61347 | 108.02772 | 37020 ft | 453 kts | 47° |
| 2026-05-07 16:32 | 18.64707 | 108.07052 | 37020 ft | 453 kts | 47° |
| 2026-05-07 16:33 | 18.68721 | 108.12174 | 37028 ft | 452 kts | 47° |
| 2026-05-07 16:33 | 18.72703 | 108.17258 | 37029 ft | 453 kts | 47° |
| 2026-05-07 16:34 | 18.76722 | 108.22380 | 37029 ft | 453 kts | 47° |
| 2026-05-07 16:34 | 18.80732 | 108.27512 | 37030 ft | 453 kts | 47° |
| 2026-05-07 16:35 | 18.84742 | 108.32647 | 37029 ft | 454 kts | 47° |
| 2026-05-07 16:35 | 18.88753 | 108.37781 | 37029 ft | 453 kts | 48° |
| 2026-05-07 16:36 | 18.92772 | 108.42928 | 37031 ft | 454 kts | 48° |
| 2026-05-07 16:36 | 18.96769 | 108.48088 | 37032 ft | 454 kts | 48° |
| 2026-05-07 16:37 | 19.00775 | 108.53252 | 37029 ft | 454 kts | 48° |
| 2026-05-07 16:37 | 19.04784 | 108.58403 | 37034 ft | 454 kts | 48° |
| 2026-05-07 16:38 | 19.08799 | 108.63567 | 37029 ft | 455 kts | 48° |
| 2026-05-07 16:38 | 19.12815 | 108.68734 | 37029 ft | 454 kts | 48° |
| 2026-05-07 16:39 | 19.16830 | 108.73903 | 37029 ft | 455 kts | 48° |
| 2026-05-07 16:39 | 19.20840 | 108.79070 | 37029 ft | 455 kts | 48° |
| 2026-05-07 16:40 | 19.24836 | 108.84209 | 37029 ft | 455 kts | 48° |
| 2026-05-07 16:40 | 19.28845 | 108.89392 | 37032 ft | 455 kts | 48° |
| 2026-05-07 16:41 | 19.32859 | 108.94566 | 37029 ft | 455 kts | 48° |
| 2026-05-07 16:41 | 19.36866 | 108.99750 | 37033 ft | 455 kts | 48° |
| 2026-05-07 16:42 | 19.40875 | 109.04938 | 37029 ft | 455 kts | 48° |
| 2026-05-07 16:42 | 19.44883 | 109.10130 | 37030 ft | 455 kts | 48° |
| 2026-05-07 16:43 | 19.48874 | 109.15332 | 37041 ft | 455 kts | 48° |
| 2026-05-07 16:43 | 19.52874 | 109.20530 | 37044 ft | 455 kts | 48° |
| 2026-05-07 16:44 | 19.56851 | 109.25753 | 37042 ft | 455 kts | 48° |
| 2026-05-07 16:44 | 19.60800 | 109.30953 | 37039 ft | 456 kts | 49° |
| 2026-05-07 16:45 | 19.64776 | 109.36185 | 37041 ft | 455 kts | 48° |
| 2026-05-07 16:45 | 19.68748 | 109.41421 | 37043 ft | 455 kts | 49° |
| 2026-05-07 16:46 | 19.72725 | 109.46650 | 37036 ft | 455 kts | 48° |
| 2026-05-07 16:46 | 19.76701 | 109.51885 | 37037 ft | 456 kts | 49° |
| 2026-05-07 16:47 | 19.80663 | 109.57138 | 37035 ft | 455 kts | 48° |
| 2026-05-07 16:47 | 19.84632 | 109.62382 | 37033 ft | 455 kts | 48° |
| 2026-05-07 16:48 | 19.88596 | 109.67625 | 37036 ft | 455 kts | 48° |
| 2026-05-07 16:48 | 19.92565 | 109.72879 | 37036 ft | 455 kts | 48° |
| 2026-05-07 16:49 | 19.96530 | 109.78130 | 37038 ft | 455 kts | 48° |
| 2026-05-07 16:49 | 20.00493 | 109.83385 | 37039 ft | 456 kts | 48° |
| 2026-05-07 16:50 | 20.04453 | 109.88643 | 37042 ft | 455 kts | 48° |
| 2026-05-07 16:50 | 20.08396 | 109.93904 | 37036 ft | 455 kts | 48° |
| 2026-05-07 16:51 | 20.12355 | 109.99170 | 37044 ft | 455 kts | 48° |
| 2026-05-07 16:51 | 20.16322 | 110.04429 | 37042 ft | 455 kts | 48° |
| 2026-05-07 16:52 | 20.20280 | 110.09692 | 37039 ft | 456 kts | 49° |
| 2026-05-07 16:52 | 20.24227 | 110.14965 | 37040 ft | 456 kts | 49° |
| 2026-05-07 16:53 | 20.28181 | 110.20253 | 37041 ft | 456 kts | 49° |
| 2026-05-07 16:53 | 20.32148 | 110.25525 | 37038 ft | 456 kts | 48° |
| 2026-05-07 16:54 | 20.36160 | 110.30743 | 37038 ft | 456 kts | 48° |
| 2026-05-07 16:54 | 20.40141 | 110.35958 | 37039 ft | 456 kts | 48° |
| 2026-05-07 16:55 | 20.44142 | 110.41202 | 37040 ft | 456 kts | 48° |
| 2026-05-07 16:55 | 20.48150 | 110.46455 | 37042 ft | 456 kts | 48° |
| 2026-05-07 16:56 | 20.51449 | 110.52250 | 37041 ft | 463 kts | 66° |
| 2026-05-07 16:56 | 20.54713 | 110.61961 | 37041 ft | 464 kts | 68° |
| 2026-05-07 16:57 | 20.56881 | 110.68442 | 37042 ft | 464 kts | 68° |
| 2026-05-07 16:57 | 20.59060 | 110.74925 | 37037 ft | 464 kts | 68° |
| 2026-05-07 16:58 | 20.61239 | 110.81403 | 37041 ft | 464 kts | 68° |
| 2026-05-07 16:58 | 20.63425 | 110.87892 | 37038 ft | 464 kts | 68° |
| 2026-05-07 16:59 | 20.65601 | 110.94378 | 37037 ft | 464 kts | 68° |
| 2026-05-07 16:59 | 20.67797 | 111.00860 | 37035 ft | 464 kts | 68° |
| 2026-05-07 17:00 | 20.69992 | 111.07346 | 37040 ft | 464 kts | 68° |
| 2026-05-07 17:00 | 20.72180 | 111.13832 | 37042 ft | 464 kts | 68° |
| 2026-05-07 17:01 | 20.74349 | 111.20287 | 37044 ft | 465 kts | 68° |
| 2026-05-07 17:01 | 20.76538 | 111.26782 | 37042 ft | 465 kts | 68° |
| 2026-05-07 17:02 | 20.78721 | 111.33284 | 37038 ft | 465 kts | 68° |
| 2026-05-07 17:02 | 20.80902 | 111.39790 | 37039 ft | 465 kts | 68° |
| 2026-05-07 17:03 | 20.83086 | 111.46297 | 37040 ft | 465 kts | 68° |
| 2026-05-07 17:03 | 20.85265 | 111.52810 | 37039 ft | 465 kts | 68° |
| 2026-05-07 17:04 | 20.87473 | 111.59310 | 37043 ft | 465 kts | 68° |
| 2026-05-07 17:04 | 20.89665 | 111.65809 | 37040 ft | 465 kts | 68° |
| 2026-05-07 17:05 | 20.91859 | 111.72317 | 37046 ft | 465 kts | 68° |
| 2026-05-07 17:05 | 20.94052 | 111.78828 | 37051 ft | 465 kts | 68° |
| 2026-05-07 17:06 | 20.96245 | 111.85341 | 37049 ft | 466 kts | 68° |
| 2026-05-07 17:06 | 20.98411 | 111.91862 | 37052 ft | 466 kts | 68° |
| 2026-05-07 17:07 | 21.00577 | 111.98343 | 37049 ft | 466 kts | 68° |
| 2026-05-07 17:07 | 21.02763 | 112.04862 | 37049 ft | 465 kts | 68° |
| 2026-05-07 17:08 | 21.04947 | 112.11392 | 37048 ft | 466 kts | 68° |
| 2026-05-07 17:08 | 21.07127 | 112.17926 | 37049 ft | 466 kts | 68° |
| 2026-05-07 17:09 | 21.09305 | 112.24462 | 37046 ft | 466 kts | 68° |
| 2026-05-07 17:09 | 21.11480 | 112.31001 | 37049 ft | 466 kts | 68° |
| 2026-05-07 17:10 | 21.13662 | 112.37540 | 37053 ft | 466 kts | 68° |
| 2026-05-07 17:10 | 21.15841 | 112.44091 | 37051 ft | 467 kts | 68° |
| 2026-05-07 17:11 | 21.18014 | 112.50647 | 37052 ft | 467 kts | 68° |
| 2026-05-07 17:11 | 21.20185 | 112.57211 | 37060 ft | 467 kts | 68° |
| 2026-05-07 17:12 | 21.22354 | 112.63770 | 37060 ft | 467 kts | 68° |
| 2026-05-07 17:12 | 21.24512 | 112.70295 | 36694 ft | 464 kts | 68° |
| 2026-05-07 17:13 | 21.25586 | 112.73561 | 36418 ft | 466 kts | 68° |
| 2026-05-07 17:13 | 21.26666 | 112.76842 | 36156 ft | 468 kts | 68° |
| 2026-05-07 17:13 | 21.27732 | 112.80091 | 35757 ft | 468 kts | 68° |
| 2026-05-07 17:13 | 21.28810 | 112.83380 | 35133 ft | 468 kts | 68° |
| 2026-05-07 17:14 | 21.29893 | 112.86673 | 34413 ft | 469 kts | 68° |
| 2026-05-07 17:14 | 21.30981 | 112.89980 | 33664 ft | 472 kts | 68° |
| 2026-05-07 17:14 | 21.32075 | 112.93302 | 32935 ft | 473 kts | 68° |
| 2026-05-07 17:14 | 21.33168 | 112.96634 | 32191 ft | 474 kts | 68° |
| 2026-05-07 17:15 | 21.34261 | 112.99975 | 31433 ft | 475 kts | 68° |
| 2026-05-07 17:15 | 21.35359 | 113.03323 | 30654 ft | 477 kts | 69° |
| 2026-05-07 17:15 | 21.36458 | 113.06686 | 29817 ft | 478 kts | 69° |
| 2026-05-07 17:15 | 21.37559 | 113.10057 | 28930 ft | 482 kts | 69° |
| 2026-05-07 17:16 | 21.38666 | 113.13462 | 28036 ft | 483 kts | 69° |
| 2026-05-07 17:16 | 21.39775 | 113.16868 | 27132 ft | 484 kts | 69° |
| 2026-05-07 17:16 | 21.40891 | 113.20282 | 26186 ft | 486 kts | 69° |
| 2026-05-07 17:16 | 21.42015 | 113.23709 | 25268 ft | 487 kts | 69° |
| 2026-05-07 17:17 | 21.43138 | 113.27133 | 24413 ft | 486 kts | 69° |
| 2026-05-07 17:17 | 21.44247 | 113.30548 | 23586 ft | 484 kts | 69° |
| 2026-05-07 17:17 | 21.45352 | 113.33954 | 22794 ft | 481 kts | 69° |
| 2026-05-07 17:17 | 21.46435 | 113.37293 | 22011 ft | 479 kts | 70° |
| 2026-05-07 17:18 | 21.47528 | 113.40669 | 21186 ft | 478 kts | 70° |
| 2026-05-07 17:18 | 21.48619 | 113.44031 | 20373 ft | 476 kts | 70° |
| 2026-05-07 17:18 | 21.49702 | 113.47376 | 19577 ft | 473 kts | 70° |
| 2026-05-07 17:18 | 21.50781 | 113.50699 | 18794 ft | 470 kts | 70° |
| 2026-05-07 17:19 | 21.51851 | 113.54005 | 18012 ft | 466 kts | 70° |
| 2026-05-07 17:19 | 21.53036 | 113.57205 | 17285 ft | 456 kts | 62° |
| 2026-05-07 17:19 | 21.54836 | 113.59946 | 16600 ft | 444 kts | 46° |
| 2026-05-07 17:19 | 21.56998 | 113.62260 | 15932 ft | 435 kts | 43° |
| 2026-05-07 17:20 | 21.59161 | 113.64488 | 15226 ft | 427 kts | 43° |
| 2026-05-07 17:20 | 21.61277 | 113.66694 | 14533 ft | 421 kts | 43° |
| 2026-05-07 17:20 | 21.63348 | 113.68884 | 13810 ft | 415 kts | 44° |
| 2026-05-07 17:20 | 21.65416 | 113.71040 | 13191 ft | 411 kts | 42° |
| 2026-05-07 17:21 | 21.67522 | 113.73100 | 12629 ft | 408 kts | 41° |
| 2026-05-07 17:21 | 21.69620 | 113.75151 | 11961 ft | 407 kts | 41° |
| 2026-05-07 17:21 | 21.71683 | 113.77167 | 11552 ft | 394 kts | 41° |
| 2026-05-07 17:21 | 21.73667 | 113.79114 | 11282 ft | 378 kts | 41° |
| 2026-05-07 17:22 | 21.75566 | 113.80979 | 11065 ft | 363 kts | 41° |
| 2026-05-07 17:22 | 21.77406 | 113.82768 | 10872 ft | 349 kts | 41° |
| 2026-05-07 17:22 | 21.79170 | 113.84485 | 10700 ft | 336 kts | 41° |
| 2026-05-07 17:22 | 21.80865 | 113.86144 | 10514 ft | 323 kts | 41° |
| 2026-05-07 17:23 | 21.82497 | 113.87735 | 10254 ft | 309 kts | 40° |
| 2026-05-07 17:23 | 21.84266 | 113.88977 | 9756 ft | 303 kts | 20° |
| 2026-05-07 17:23 | 21.85612 | 113.89353 | 9354 ft | 301 kts | 4° |
| 2026-05-07 17:23 | 21.88323 | 113.88895 | 8610 ft | 296 kts | 336° |
| 2026-05-07 17:24 | 21.89558 | 113.88285 | 8263 ft | 294 kts | 333° |
| 2026-05-07 17:24 | 21.91360 | 113.87324 | 7940 ft | 284 kts | 333° |
| 2026-05-07 17:24 | 21.93096 | 113.86414 | 7701 ft | 271 kts | 334° |
| 2026-05-07 17:24 | 21.94770 | 113.85552 | 7413 ft | 263 kts | 334° |
| 2026-05-07 17:25 | 21.96417 | 113.84717 | 7027 ft | 261 kts | 334° |
| 2026-05-07 17:25 | 21.98054 | 113.83892 | 6599 ft | 259 kts | 334° |
| 2026-05-07 17:25 | 21.99682 | 113.83077 | 6159 ft | 258 kts | 335° |
| 2026-05-07 17:25 | 22.01303 | 113.82269 | 5724 ft | 255 kts | 335° |
| 2026-05-07 17:26 | 22.02908 | 113.81469 | 5350 ft | 252 kts | 335° |
| 2026-05-07 17:26 | 22.04469 | 113.80691 | 5136 ft | 242 kts | 335° |
| 2026-05-07 17:26 | 22.05961 | 113.79948 | 4881 ft | 232 kts | 335° |
| 2026-05-07 17:26 | 22.07393 | 113.79235 | 4590 ft | 222 kts | 335° |
| 2026-05-07 17:27 | 22.08781 | 113.78543 | 4243 ft | 218 kts | 335° |
| 2026-05-07 17:27 | 22.10130 | 113.77870 | 3886 ft | 215 kts | 335° |
| 2026-05-07 17:27 | 22.11504 | 113.77184 | 3528 ft | 217 kts | 335° |
| 2026-05-07 17:27 | 22.12878 | 113.76502 | 3346 ft | 217 kts | 335° |
| 2026-05-07 17:28 | 22.14250 | 113.75819 | 3355 ft | 218 kts | 335° |
| 2026-05-07 17:28 | 22.15609 | 113.75139 | 3357 ft | 218 kts | 335° |
| 2026-05-07 17:28 | 22.16982 | 113.74454 | 3363 ft | 213 kts | 335° |
| 2026-05-07 17:28 | 22.18270 | 113.73812 | 3322 ft | 198 kts | 335° |
| 2026-05-07 17:29 | 22.19513 | 113.73192 | 3371 ft | 197 kts | 335° |
| 2026-05-07 17:29 | 22.20754 | 113.72567 | 3389 ft | 197 kts | 335° |
| 2026-05-07 17:29 | 22.21994 | 113.71945 | 3349 ft | 196 kts | 335° |
| 2026-05-07 17:29 | 22.23281 | 113.71470 | 3281 ft | 197 kts | 355° |
| 2026-05-07 17:30 | 22.24547 | 113.71905 | 3095 ft | 195 kts | 38° |
| 2026-05-07 17:30 | 22.25509 | 113.72917 | 2948 ft | 192 kts | 41° |
| 2026-05-07 17:30 | 22.26528 | 113.73766 | 2797 ft | 175 kts | 39° |
| 2026-05-07 17:30 | 22.27371 | 113.74671 | 2623 ft | 170 kts | 52° |
| 2026-05-07 17:31 | 22.27991 | 113.75743 | 2423 ft | 168 kts | 63° |
| 2026-05-07 17:31 | 22.28465 | 113.76882 | 2207 ft | 166 kts | 69° |
| 2026-05-07 17:31 | 22.28872 | 113.78038 | 1989 ft | 164 kts | 71° |
| 2026-05-07 17:31 | 22.29252 | 113.79192 | 1772 ft | 163 kts | 71° |
| 2026-05-07 17:32 | 22.29624 | 113.80344 | 1556 ft | 162 kts | 71° |
| 2026-05-07 17:32 | 22.29966 | 113.81406 | 1339 ft | 135 kts | 71° |
| 2026-05-07 17:32 | 22.30264 | 113.82334 | 1164 ft | 129 kts | 71° |
| 2026-05-07 17:32 | 22.30558 | 113.83249 | 1004 ft | 129 kts | 71° |
| 2026-05-07 17:33 | 22.30850 | 113.84160 | 832 ft | 128 kts | 71° |
| 2026-05-07 17:33 | 22.31143 | 113.85071 | 668 ft | 128 kts | 71° |
| 2026-05-07 17:33 | 22.31434 | 113.85979 | 500 ft | 128 kts | 71° |
| 2026-05-07 17:33 | 22.31726 | 113.86887 | 329 ft | 128 kts | 71° |
| 2026-05-07 17:34 | 22.32018 | 113.87797 | 161 ft | 128 kts | 71° |
| 2026-05-07 17:34 | 22.32309 | 113.88705 | 47 ft | 123 kts | 71° |
| 2026-05-07 17:34 | 22.32548 | 113.89447 | 37 ft | 78 kts | 71° |
| 2026-05-07 17:34 | 22.32663 | 113.89801 | 37 ft | 22 kts | 70° |
| 2026-05-07 17:35 | 22.32687 | 113.89875 | 38 ft | 11 kts | 71° |
| 2026-05-07 17:35 | 22.32702 | 113.89964 | 38 ft | 14 kts | 85° |
| 2026-05-07 17:35 | 22.32697 | 113.90082 | 38 ft | 17 kts | 95° |
| 2026-05-07 17:35 | 22.32676 | 113.90178 | 38 ft | 9 kts | 115° |
| 2026-05-07 17:36 | 22.32642 | 113.90248 | 37 ft | 12 kts | 135° |
| 2026-05-07 17:36 | 22.32564 | 113.90298 | 37 ft | 14 kts | 161° |
| 2026-05-07 17:36 | 22.32461 | 113.90334 | 37 ft | 17 kts | 160° |
| 2026-05-07 17:36 | 22.32346 | 113.90379 | 37 ft | 19 kts | 161° |
| 2026-05-07 17:37 | 22.32216 | 113.90425 | 37 ft | 21 kts | 161° |
| 2026-05-07 17:37 | 22.32074 | 113.90477 | 37 ft | 23 kts | 161° |
| 2026-05-07 17:37 | 22.31920 | 113.90535 | 37 ft | 24 kts | 160° |
| 2026-05-07 17:37 | 22.31774 | 113.90590 | 37 ft | 21 kts | 161° |
| 2026-05-07 17:38 | 22.31679 | 113.90627 | 38 ft | 10 kts | 153° |
| 2026-05-07 17:38 | 22.31657 | 113.90700 | 38 ft | 13 kts | 74° |
| 2026-05-07 17:38 | 22.31689 | 113.90798 | 38 ft | 15 kts | 71° |
| 2026-05-07 17:38 | 22.31725 | 113.90913 | 38 ft | 17 kts | 71° |
| 2026-05-07 17:39 | 22.31766 | 113.91044 | 38 ft | 19 kts | 70° |
| 2026-05-07 17:39 | 22.31813 | 113.91187 | 38 ft | 21 kts | 70° |
| 2026-05-07 17:39 | 22.31864 | 113.91345 | 38 ft | 23 kts | 71° |
| 2026-05-07 17:39 | 22.31920 | 113.91516 | 38 ft | 25 kts | 70° |
| 2026-05-07 17:40 | 22.31978 | 113.91700 | 38 ft | 27 kts | 71° |
| 2026-05-07 17:40 | 22.32040 | 113.91897 | 38 ft | 29 kts | 71° |
| 2026-05-07 17:40 | 22.32104 | 113.92097 | 38 ft | 28 kts | 70° |
| 2026-05-07 17:40 | 22.32148 | 113.92234 | 38 ft | 19 kts | 70° |
| 2026-05-07 17:41 | 22.32196 | 113.92378 | 38 ft | 21 kts | 71° |
| 2026-05-07 17:41 | 22.32245 | 113.92537 | 38 ft | 23 kts | 71° |
| 2026-05-07 17:41 | 22.32287 | 113.92664 | 38 ft | 10 kts | 70° |
| 2026-05-07 17:41 | 22.32291 | 113.92741 | 38 ft | 12 kts | 127° |
| 2026-05-07 17:42 | 22.32208 | 113.92783 | 38 ft | 15 kts | 163° |
| 2026-05-07 17:42 | 22.32102 | 113.92820 | 40 ft | 17 kts | 161° |
| 2026-05-07 17:42 | 22.32008 | 113.92854 | 38 ft | 8 kts | 161° |
| 2026-05-07 17:42 | 22.31952 | 113.92876 | 37 ft | 9 kts | 158° |
| 2026-05-07 17:43 | 22.31884 | 113.92906 | 38 ft | 12 kts | 155° |
| 2026-05-07 17:43 | 22.31842 | 113.92984 | 38 ft | 14 kts | 77° |
| 2026-05-07 17:43 | 22.31868 | 113.93095 | 38 ft | 17 kts | 105° |
| 2026-05-07 17:43 | 22.31768 | 113.93155 | 38 ft | 18 kts | 166° |
| 2026-05-07 17:44 | 22.31710 | 113.93178 | 37 ft | 10 kts | 159° |
| 2026-05-07 17:44 | 22.31646 | 113.93202 | 37 ft | 9 kts | 163° |
| 2026-05-07 17:44 | 22.31596 | 113.93209 | 37 ft | 3 kts | 180° |
| 2026-05-07 17:44 | 22.31574 | 113.93209 | 37 ft | 4 kts | 179° |
| 2026-05-07 17:45 | 22.31549 | 113.93209 | 37 ft | 4 kts | 179° |
| 2026-05-07 17:45 | 22.31544 | 113.93209 | 37 ft | 0 kts | 179° |